createdAt,value
2018-09-20T00:09:38.717Z,99.90
2018-09-20T00:12:54.299Z,99.90
2018-09-20T00:15:27.215Z,99.90
2018-09-20T00:26:36.002Z,99.90
2018-09-20T00:32:08.109Z,99.90
2018-09-20T00:34:45.598Z,99.90
2018-09-20T00:37:23.455Z,99.90
2018-09-20T00:40:01.403Z,99.90
2018-09-20T01:39:15.519Z,99.90
2018-09-20T02:42:05.522Z,99.90
2018-09-20T04:32:08.283Z,99.90
2018-09-20T04:34:36.853Z,99.90
2018-09-20T04:37:06.128Z,99.90
2018-09-20T04:39:39.220Z,99.90
2018-09-20T04:42:16.400Z,99.90
2018-09-20T04:51:09.524Z,99.90
2018-09-20T05:47:40.011Z,99.90
2018-09-20T05:50:08.868Z,99.90
2018-09-20T05:52:39.969Z,99.90
2018-09-20T05:55:08.480Z,99.90
2018-09-20T05:57:37.495Z,99.90
2018-09-20T06:00:06.437Z,99.90
2018-09-20T06:02:35.371Z,99.90
2018-09-20T06:05:04.090Z,99.90
2018-09-20T06:07:34.009Z,99.90
2018-09-20T06:10:03.055Z,99.90
2018-09-20T06:12:31.553Z,99.90
2018-09-20T06:15:01.306Z,99.90
2018-09-20T06:17:29.794Z,99.90
2018-09-20T06:19:58.649Z,99.90
2018-09-20T06:22:27.502Z,99.90
2018-09-20T06:24:57.582Z,99.90
2018-09-20T06:27:27.282Z,99.90
2018-09-20T06:33:10.340Z,99.90
2018-09-20T06:35:39.471Z,99.90
2018-09-20T06:38:08.981Z,99.90
2018-09-20T06:40:41.225Z,99.90
2018-09-20T06:43:10.159Z,99.90
2018-09-20T06:45:40.598Z,99.90
2018-09-20T06:48:10.459Z,99.90
2018-09-20T06:50:42.198Z,99.90
2018-09-20T06:53:14.584Z,99.90
2018-09-20T06:55:44.045Z,99.90
2018-09-20T06:58:12.768Z,99.90
2018-09-20T07:00:41.697Z,99.90
2018-09-20T07:03:10.389Z,99.90
2018-09-20T07:05:41.214Z,99.90
2018-09-20T07:08:10.585Z,99.90
2018-09-20T07:10:43.117Z,99.90
2018-09-20T07:13:11.838Z,99.90
2018-09-20T07:15:41.026Z,99.90
2018-09-20T07:18:27.171Z,99.90
2018-09-20T07:23:55.727Z,99.90
2018-09-20T07:26:43.737Z,99.90
2018-09-20T07:29:13.034Z,99.90
2018-09-20T07:31:50.731Z,99.90
2018-09-20T07:34:21.385Z,99.90
2018-09-20T07:36:52.455Z,99.90
2018-09-20T07:39:24.640Z,99.90
2018-09-20T07:41:56.605Z,99.90
2018-09-20T07:44:26.874Z,99.90
2018-09-20T07:46:57.717Z,99.90
2018-09-20T07:49:28.811Z,99.90
2018-09-20T07:51:58.826Z,99.90
2018-09-20T07:54:27.792Z,99.90
2018-09-20T07:56:59.117Z,99.90
2018-09-20T07:59:32.871Z,99.90
2018-09-20T08:02:45.259Z,99.90
2018-09-20T08:05:25.457Z,99.90
2018-09-20T08:08:00.021Z,99.90
2018-09-20T08:10:30.177Z,99.90
2018-09-20T08:13:00.288Z,99.90
2018-09-20T08:15:45.169Z,99.90
2018-09-20T08:18:16.066Z,99.90
2018-09-20T08:21:00.104Z,99.90
2018-09-20T08:23:39.960Z,99.90
2018-09-20T08:26:12.683Z,99.90
2018-09-20T08:28:43.148Z,99.90
2018-09-20T08:31:18.298Z,99.90
2018-09-20T08:33:50.080Z,99.90
2018-09-20T08:36:20.689Z,99.60
2018-09-20T08:38:53.011Z,99.30
2018-09-20T08:41:22.038Z,98.80
2018-09-20T08:43:53.786Z,98.40
2018-09-20T08:46:22.451Z,97.70
2018-09-20T08:48:59.790Z,97.30
2018-09-20T08:51:31.578Z,96.80
2018-09-20T08:54:01.522Z,96.20
2018-09-20T08:56:33.230Z,95.40
2018-09-20T08:59:03.527Z,94.80
2018-09-20T09:01:34.748Z,93.90
2018-09-20T09:04:03.429Z,93.10
2018-09-20T09:06:36.720Z,93.00
2018-09-20T09:09:14.693Z,92.30
2018-09-20T09:11:44.252Z,92.00
2018-09-20T09:14:17.693Z,91.50
2018-09-20T09:16:49.430Z,91.00
2018-09-20T09:19:23.821Z,90.10
2018-09-20T09:21:56.024Z,89.20
2018-09-20T09:24:25.958Z,88.10
2018-09-20T09:27:00.689Z,87.30
2018-09-20T09:29:40.536Z,86.30
2018-09-20T09:32:14.581Z,85.80
2018-09-20T09:34:45.005Z,85.60
2018-09-20T09:37:21.416Z,84.80
2018-09-20T09:39:52.881Z,83.70
2018-09-20T09:42:23.067Z,82.30
2018-09-20T09:44:53.355Z,80.70
2018-09-20T09:47:35.326Z,79.50
2018-09-20T09:50:09.340Z,79.30
2018-09-20T09:52:41.566Z,78.00
2018-09-20T09:55:13.993Z,76.10
2018-09-20T09:57:43.547Z,74.80
2018-09-20T10:00:24.469Z,74.80
2018-09-20T10:03:02.822Z,73.90
2018-09-20T10:05:36.273Z,72.70
2018-09-20T10:08:06.121Z,70.50
2018-09-20T10:10:36.827Z,70.90
2018-09-20T10:13:08.192Z,69.30
2018-09-20T10:15:43.710Z,70.10
2018-09-20T10:18:13.434Z,70.00
2018-09-20T10:20:45.650Z,69.50
2018-09-20T10:23:17.085Z,69.00
2018-09-20T10:25:54.096Z,68.30
2018-09-20T10:28:22.759Z,67.10
2018-09-20T10:30:52.409Z,65.80
2018-09-20T10:33:22.241Z,65.20
2018-09-20T10:40:08.958Z,64.30
2018-09-20T10:42:45.005Z,64.50
2018-09-20T10:45:14.974Z,64.00
2018-09-20T10:47:43.741Z,63.80
2018-09-20T10:50:12.210Z,63.20
2018-09-20T10:52:42.180Z,61.90
2018-09-20T10:55:11.749Z,62.00
2018-09-20T10:57:40.515Z,61.80
2018-09-20T11:00:12.093Z,60.90
2018-09-20T11:02:52.370Z,60.50
2018-09-20T11:05:28.060Z,59.10
2018-09-20T11:07:56.740Z,58.00
2018-09-20T11:10:25.264Z,58.60
2018-09-20T11:12:55.007Z,58.10
2018-09-20T11:15:23.760Z,57.90
2018-09-20T11:17:52.806Z,58.10
2018-09-20T11:20:21.742Z,59.00
2018-09-20T11:22:50.765Z,59.50
2018-09-20T11:25:19.613Z,59.50
2018-09-20T11:27:49.933Z,59.00
2018-09-20T11:30:18.942Z,58.70
2018-09-20T11:32:51.760Z,58.80
2018-09-20T11:35:20.191Z,58.20
2018-09-20T11:37:50.720Z,58.40
2018-09-20T11:40:19.752Z,58.50
2018-09-20T11:42:48.806Z,58.40
2018-09-20T11:45:18.044Z,58.10
2018-09-20T11:47:48.098Z,57.90
2018-09-20T11:50:17.153Z,58.00
2018-09-20T11:52:46.622Z,57.70
2018-09-20T11:55:16.178Z,57.50
2018-09-20T11:57:44.611Z,57.30
2018-09-20T12:00:13.358Z,57.10
2018-09-20T12:02:43.502Z,55.70
2018-09-20T12:05:12.122Z,55.10
2018-09-20T12:07:40.391Z,55.40
2018-09-20T12:10:09.041Z,55.40
2018-09-20T12:12:37.929Z,55.30
2018-09-20T12:15:06.303Z,54.80
2018-09-20T12:17:34.629Z,54.50
2018-09-20T12:20:02.991Z,54.20
2018-09-20T12:22:31.550Z,53.70
2018-09-20T12:25:00.475Z,53.50
2018-09-20T12:27:29.398Z,53.50
2018-09-20T12:29:58.168Z,52.90
2018-09-20T12:32:26.568Z,52.00
2018-09-20T12:34:55.731Z,52.60
2018-09-20T12:37:30.529Z,52.40
2018-09-20T12:39:59.515Z,52.70
2018-09-20T12:42:28.823Z,53.10
2018-09-20T12:44:58.190Z,52.90
2018-09-20T12:47:26.527Z,52.70
2018-09-20T12:49:55.575Z,53.00
2018-09-20T12:52:24.017Z,53.10
2018-09-20T12:54:52.473Z,53.20
2018-09-20T12:57:20.810Z,53.20
2018-09-20T12:59:49.484Z,53.50
2018-09-20T13:02:18.473Z,53.60
2018-09-20T13:04:47.101Z,54.00
2018-09-20T13:07:16.133Z,53.50
2018-09-20T13:09:44.885Z,53.50
2018-09-20T13:12:16.065Z,53.60
2018-09-20T13:14:45.615Z,53.60
2018-09-20T13:17:14.361Z,53.40
2018-09-20T13:19:43.404Z,53.70
2018-09-20T13:22:12.838Z,53.60
2018-09-20T13:24:41.548Z,53.40
2018-09-20T13:27:10.817Z,53.30
2018-09-20T13:29:39.334Z,53.00
2018-09-20T13:32:08.739Z,52.90
2018-09-20T13:34:37.117Z,52.40
2018-09-20T13:37:05.925Z,50.90
2018-09-20T13:39:35.016Z,50.30
2018-09-20T13:42:04.174Z,50.30
2018-09-20T13:44:32.789Z,50.30
2018-09-20T13:47:01.128Z,50.50
2018-09-20T13:49:29.872Z,50.90
2018-09-20T13:51:58.362Z,50.40
2018-09-20T13:54:27.088Z,50.10
2018-09-20T13:56:55.576Z,47.70
2018-09-20T13:59:25.122Z,47.00
2018-09-20T14:01:54.537Z,45.90
2018-09-20T14:04:22.990Z,46.20
2018-09-20T14:06:52.444Z,46.50
2018-09-20T14:09:21.937Z,46.50
2018-09-20T14:11:51.623Z,46.60
2018-09-20T14:14:20.029Z,46.60
2018-09-20T14:16:48.515Z,47.00
2018-09-20T14:19:17.163Z,46.70
2018-09-20T14:21:45.903Z,47.00
2018-09-20T14:24:16.226Z,46.80
2018-09-20T14:26:44.578Z,46.70
2018-09-20T14:29:12.951Z,46.80
2018-09-20T14:31:41.284Z,47.00
2018-09-20T14:34:09.634Z,46.80
2018-09-20T14:36:37.985Z,46.20
2018-09-20T14:39:08.639Z,46.30
2018-09-20T14:41:37.413Z,45.90
2018-09-20T14:44:06.224Z,46.20
2018-09-20T14:46:35.582Z,45.90
2018-09-20T14:49:04.683Z,46.30
2018-09-20T14:51:33.116Z,46.90
2018-09-20T14:54:01.878Z,47.00
2018-09-20T14:56:31.028Z,46.70
2018-09-20T14:58:59.362Z,46.50
2018-09-20T15:01:28.018Z,46.60
2018-09-20T15:03:57.657Z,46.10
2018-09-20T15:06:27.446Z,46.30
2018-09-20T15:08:55.796Z,46.40
2018-09-20T15:11:24.234Z,46.40
2018-09-20T15:13:52.628Z,46.40
2018-09-20T15:16:22.069Z,45.80
2018-09-20T15:18:51.304Z,46.00
2018-09-20T15:21:19.632Z,45.60
2018-09-20T15:23:48.431Z,45.10
2018-09-20T15:26:17.060Z,44.90
2018-09-20T15:28:51.305Z,44.70
2018-09-20T15:31:19.586Z,44.60
2018-09-20T15:33:48.586Z,43.60
2018-09-20T15:36:16.829Z,43.80
2018-09-20T15:38:45.528Z,43.50
2018-09-20T15:41:14.850Z,42.80
2018-09-20T15:43:45.299Z,42.30
2018-09-20T15:46:14.686Z,42.30
2018-09-20T15:48:43.411Z,42.10
2018-09-20T15:51:11.714Z,42.50
2018-09-20T15:53:39.991Z,43.10
2018-09-20T15:56:10.387Z,42.90
2018-09-20T15:58:39.966Z,43.00
2018-09-20T16:01:10.224Z,43.00
2018-09-20T16:03:38.896Z,43.50
2018-09-20T16:06:08.110Z,43.70
2018-09-20T16:08:37.379Z,44.20
2018-09-20T16:11:13.305Z,44.80
2018-09-20T16:13:41.599Z,45.60
2018-09-20T16:29:57.227Z,46.10
2018-09-20T16:32:33.621Z,48.20
2018-09-20T16:35:17.773Z,48.70
2018-09-20T16:39:58.371Z,49.00
2018-09-20T16:42:29.096Z,49.30
2018-09-20T16:44:57.438Z,49.70
2018-09-20T16:47:25.745Z,49.90
2018-09-20T16:49:53.988Z,50.30
2018-09-20T16:52:22.885Z,50.60
2018-09-20T16:54:51.789Z,50.90
2018-09-20T16:57:20.340Z,51.60
2018-09-20T16:59:49.092Z,52.10
2018-09-20T17:02:17.670Z,52.70
2018-09-20T17:04:45.959Z,53.00
2018-09-20T17:07:15.424Z,53.40
2018-09-20T17:09:44.157Z,54.00
2018-09-20T17:12:12.737Z,54.60
2018-09-20T17:14:43.098Z,54.70
2018-09-20T17:17:12.680Z,55.10
2018-09-20T17:19:41.152Z,55.30
2018-09-20T17:22:10.032Z,55.80
2018-09-20T17:24:39.194Z,56.30
2018-09-20T17:27:07.519Z,56.70
2018-09-20T17:29:36.743Z,57.00
2018-09-20T17:33:29.841Z,57.30
2018-09-20T17:35:58.170Z,57.80
2018-09-20T17:38:26.854Z,57.90
2018-09-20T17:40:59.000Z,58.10
2018-09-20T17:43:33.226Z,58.80
2018-09-20T17:46:03.477Z,59.30
2018-09-20T17:48:32.585Z,59.30
2018-09-20T17:53:36.060Z,60.10
2018-09-20T17:56:04.861Z,60.40
2018-09-20T17:58:33.461Z,60.70
2018-09-20T18:01:02.366Z,61.00
2018-09-20T18:03:32.963Z,61.30
2018-09-20T18:06:01.201Z,62.10
2018-09-20T18:08:37.905Z,62.20
2018-09-20T18:11:06.374Z,62.70
2018-09-20T18:13:35.512Z,62.90
2018-09-20T18:16:09.253Z,63.10
2018-09-20T18:18:44.227Z,62.90
2018-09-20T18:21:12.591Z,63.00
2018-09-20T18:23:41.696Z,63.30
2018-09-20T18:26:12.481Z,63.30
2018-09-20T18:28:40.769Z,63.40
2018-09-20T18:31:10.095Z,64.30
2018-09-20T18:33:51.360Z,63.90
2018-09-20T18:39:19.640Z,64.70
2018-09-20T18:41:48.482Z,65.00
2018-09-20T18:44:19.902Z,65.50
2018-09-20T18:46:49.524Z,65.80
2018-09-20T18:49:18.119Z,66.20
2018-09-20T18:51:47.481Z,66.50
2018-09-20T18:54:15.750Z,66.70
2018-09-20T18:56:44.182Z,66.90
2018-09-20T18:59:12.783Z,67.90
2018-09-20T19:01:41.038Z,67.20
2018-09-20T19:04:09.965Z,67.50
2018-09-20T19:06:38.218Z,67.80
2018-09-20T19:09:08.678Z,68.10
2018-09-20T19:11:37.231Z,68.40
2018-09-20T19:14:05.611Z,68.30
2018-09-20T19:16:34.278Z,68.50
2018-09-20T19:19:03.710Z,68.90
2018-09-20T19:21:32.079Z,69.20
2018-09-20T19:24:00.326Z,69.40
2018-09-20T19:26:29.246Z,69.60
2018-09-20T19:28:57.549Z,69.70
2018-09-20T19:31:25.830Z,70.00
2018-09-20T19:33:54.472Z,70.10
2018-09-20T19:36:23.062Z,70.10
2018-09-20T19:38:51.707Z,70.30
2018-09-20T19:41:20.482Z,70.40
2018-09-20T19:43:48.739Z,70.70
2018-09-20T19:46:17.008Z,71.10
2018-09-20T19:48:46.207Z,71.40
2018-09-20T19:51:14.802Z,71.70
2018-09-20T19:53:43.052Z,71.70
2018-09-20T19:56:11.325Z,72.00
2018-09-20T19:58:39.920Z,72.00
2018-09-20T20:01:08.614Z,72.20
2018-09-20T20:03:36.887Z,72.20
2018-09-20T20:06:05.489Z,72.50
2018-09-20T20:08:33.705Z,72.80
2018-09-20T20:11:02.110Z,72.40
2018-09-20T20:13:36.525Z,72.60
2018-09-20T20:16:05.777Z,73.00
2018-09-20T20:18:34.016Z,73.20
2018-09-20T20:21:02.377Z,73.40
2018-09-20T20:23:30.934Z,73.50
2018-09-20T20:26:01.664Z,73.60
2018-09-20T20:28:31.122Z,73.90
2018-09-20T20:30:59.528Z,74.00
2018-09-20T20:33:28.887Z,74.20
2018-09-20T20:35:57.137Z,74.50
2018-09-20T20:38:25.741Z,74.70
2018-09-20T20:40:54.260Z,75.20
2018-09-20T20:43:23.299Z,75.40
2018-09-20T20:45:51.521Z,75.40
2018-09-20T20:48:20.088Z,76.00
2018-09-20T20:50:48.697Z,76.30
2018-09-20T20:53:17.357Z,76.70
2018-09-20T20:55:45.953Z,76.90
2018-09-20T20:58:14.199Z,77.00
2018-09-20T21:00:42.758Z,77.20
2018-09-20T21:03:11.052Z,77.60
2018-09-20T21:05:39.667Z,78.00
2018-09-20T21:08:08.354Z,78.10
2018-09-20T21:10:36.916Z,78.60
2018-09-20T21:13:05.470Z,79.00
2018-09-20T21:15:34.494Z,79.30
2018-09-20T21:18:02.804Z,79.40
2018-09-20T21:20:31.053Z,79.50
2018-09-20T21:22:59.292Z,80.00
2018-09-20T21:25:27.889Z,80.10
2018-09-20T21:27:56.473Z,80.40
2018-09-20T21:30:25.093Z,80.40
2018-09-20T21:32:53.384Z,80.70
2018-09-20T21:35:21.629Z,81.00
2018-09-20T21:37:49.861Z,81.10
2018-09-20T21:40:30.563Z,81.40
2018-09-20T21:42:59.220Z,81.50
2018-09-20T21:45:32.380Z,81.70
2018-09-20T21:48:02.434Z,82.20
2018-09-20T21:50:30.681Z,82.70
2018-09-20T21:52:59.537Z,83.00
2018-09-20T21:55:28.377Z,83.20
2018-09-20T21:57:57.825Z,83.50
2018-09-20T22:00:26.526Z,83.80
2018-09-20T22:03:00.235Z,83.90
2018-09-20T22:05:29.202Z,84.20
2018-09-20T22:07:58.783Z,84.40
2018-09-20T22:10:27.313Z,84.70
2018-09-20T22:12:56.797Z,85.20
2018-09-20T22:15:26.746Z,85.50
2018-09-20T22:17:55.946Z,85.60
2018-09-20T22:20:26.876Z,85.60
2018-09-20T22:22:56.660Z,85.90
2018-09-20T22:25:26.153Z,86.00
2018-09-20T22:27:59.796Z,86.40
2018-09-20T22:30:28.645Z,86.70
2018-09-20T22:32:57.149Z,86.90
2018-09-20T22:35:25.693Z,87.50
2018-09-20T22:37:54.582Z,87.40
2018-09-20T22:40:23.113Z,87.90
2018-09-20T22:42:57.620Z,88.40
2018-09-20T22:45:26.161Z,88.90
2018-09-20T22:47:55.649Z,89.20
2018-09-20T22:50:24.496Z,89.70
2018-09-20T22:52:52.974Z,89.80
2018-09-20T22:55:23.231Z,90.00
2018-09-20T22:57:52.125Z,90.00
2018-09-20T23:00:24.540Z,90.00
2018-09-20T23:02:55.225Z,90.20
2018-09-20T23:05:24.626Z,90.30
2018-09-20T23:07:53.881Z,90.30
2018-09-20T23:10:23.066Z,91.00
2018-09-20T23:12:51.960Z,91.00
2018-09-20T23:15:20.796Z,91.30
2018-09-20T23:17:49.352Z,91.60
2018-09-20T23:20:18.264Z,91.70
2018-09-20T23:22:46.753Z,92.00
2018-09-20T23:25:15.738Z,92.30
2018-09-20T23:27:44.225Z,92.30
2018-09-20T23:30:12.821Z,92.80
2018-09-20T23:32:41.364Z,93.00
2018-09-20T23:35:10.585Z,93.30
2018-09-20T23:37:39.070Z,93.70
2018-09-20T23:40:07.573Z,93.60
2018-09-20T23:42:36.414Z,94.10
2018-09-20T23:45:04.924Z,94.30
2018-09-20T23:47:33.441Z,94.70
2018-09-20T23:50:02.271Z,94.90
2018-09-20T23:52:31.111Z,95.10
2018-09-20T23:54:59.913Z,95.40
2018-09-20T23:57:28.736Z,95.60
2018-09-20T23:59:57.577Z,95.80
